Terminal Aerodrome Forecast
Issued by NWS Austin/San Antonio, TX

Home | Current Version | Previous Version | Text Only | Print | Product List | Glossary On
Versions: 1 2 3 4 5 6 7 8 9 10 11 12
084
FTUS44 KEWX 160520
TAFAUS
TAF
KAUS 160520Z 1606/1712 VRB03KT P6SM SCT100 BKN200
     FM161800 16006KT P6SM -RA OVC035
     FM162200 11004KT 2SM RA OVC007
     FM170500 VRB04KT 5SM BR OVC007=

USA.gov is the U.S. government's official web portal to all federal, state and local government web resources and services.